Relevés horaires Bouveret (Suisse)


Relevés horaires à Bouveret - Dimanche 01 Mars 2015
Heure UTC1 Température [°C] Vent [km/h] Hum. [%] Pres.4 [hPa] Visi. [Km] Nébu. [octa] Préc.5 [mm] Cond.
2m. Res. Ros. Dir.2 Vit. Moy. Raf.3
23:00 7.1 4.1 6.1 SSE 16.7 18.5 33.3 93 1013.7(-1.5/3h) -- -- -- --
22:00 7.5 7.5 6.3 O 3.7 27.8 37.0 92 1014.3(-0.9/3h) -- -- -- --
21:00 6.7 3.6 5.7 O 16.7 18.5 31.5 93 1014.4(-1.1/3h) -- -- -- --
20:00 6.0 5 5.5 SE 5.6 18.5 31.5 97 1015.5(-0.3/3h) -- -- -- --
19:00 6.6 5.2 5.0 SSE 7.4 9.3 22.2 89 1015.4(-0.4/3h) -- -- -- --
18:00 6.3 4.8 5.2 OSO 7.4 16.7 22.2 93 1015.6(-0.1/3h) -- -- -- --
17:00 6.3 4.8 5.1 E 7.4 11.1 18.5 92 1015.7(0.0/3h) -- -- -- --
16:00 5.6 5.6 3.9 SO 3.7 9.3 11.1 89 1016(-0.9/3h) -- -- -- --
15:00 5.9 5.9 3.2 ONO 3.7 16.7 20.4 83 1015.8(-0.9/3h) -- -- -- --
14:00 5.9 4.9 3.2 E 5.6 5.6 13.0 83 1015.8(-2.2/3h) -- -- -- --
13:00 5.1 4 2.8 ONO 5.6 16.7 20.4 85 1017(-0.9/3h) -- -- -- --
12:00 6.8 4 3.0 ESE 14.8 14.8 29.6 77 1016.6(-1.4/3h) -- -- -- --
11:00 4.7 3.5 2.6 O 5.6 11.1 14.8 86 1018.3(-0.2/3h) -- -- -- --
10:00 4.6 2.8 2.3 O 7.4 11.1 18.5 85 1018(0.1/3h) -- -- -- --
09:00 4.1 2.8 2.6 O 5.6 13.0 22.2 90 1018.5(0.6/3h) -- -- -- --
08:00 3.9 2.6 2.0 O 5.6 13.0 20.4 87 1018.7(0.7/3h) -- -- -- --
07:00 3.0 1 1.8 OSO 7.4 13.0 22.2 92 1018.2(-0.2/3h) -- -- -- --
06:00 3.3 0 1.6 ONO 13.0 18.5 33.3 89 1018(0.2/3h) -- -- -- --
05:00 4.9 4.9 1.0 O 3.7 7.4 9.3 76 1017.8(0.2/3h) -- -- -- --
04:00 4.9 3.2 0.4 OSO 7.4 9.3 14.8 73 1018.1(-0.5/3h) -- -- -- --
03:00 5.0 1.5 0.3 ONO 16.7 18.5 33.3 72 1018(-0.8/3h) -- -- -- --
02:00 4.1 2.2 -0.3 SO 7.4 7.4 27.8 73 1017.7(-1.6/3h) -- -- -- --
01:00 3.8 2.5 0.1 SSE 5.6 5.6 11.1 77 1018.8(-1.5/3h) -- -- -- --
00:00 3.6 3.6 -0.6 SO 3.7 11.1 16.7 74 1019 -- -- -- --

1 Coordinated Universal Time. Actuellement il est 11:00 locale et 09:00 UTC.

2 Le vent souffle depuis la direction indiquée vers la direction oposée.

3 Les rafales max. sont disponible 40 min après l'heure du relevé.

4 Pour les stations d'altitude (plus de 600m) le géopotentiel du niveau le plus proche de la pression obligatoire est indiqué.

5 Les stations disposant d'un diffuseur peuvent indiquer "trace". Cela signifie que des précipitations ont touchés le sol mais que la quantité est inférieure à 0.1 mm.

Copyright

Les données affichées sur cette page sont la propriété exclusive de Météo Suisse.

Récapitulatif de la journée
Température [°C] Vent [km/h] Ensoleillement4 [h] Precipitations totale5 [mm] Pression [Hpa]
Min1 Max.2 Moy.3 Max. Min Max.
2.1 6.8 13.4 37.0 0 h 0 min 0 1013.7 1019.0

1 Température minimale relevée entre 18:00 UTC la veille et 18:00 UTC le jour donné.

2 Température maximale relevée entre 06:00 UTC le jour donné et 06:00 UTC le lendemain.

3 Vent moyen de la journée basé sur les relevés horaires.

4 Ensoleillement en heures relevé entre 06:00 UTC la veille et 06:00 UTC le jour donné.

5 Précipitations totales tombées entre 06:00 UTC la jour donné et 06:00 UTC le lendemain.

Graphiques horaires